sensor_id;sensor_type;location;lat;lon;timestamp;temperature;humidity
13440;DHT22;6792;57.698;11.946;2023-11-22T00:01:31;10.40;48.10
13440;DHT22;6792;57.698;11.946;2023-11-22T00:04:00;10.40;47.50
13440;DHT22;6792;57.698;11.946;2023-11-22T00:06:29;10.40;48.00
13440;DHT22;6792;57.698;11.946;2023-11-22T00:08:58;10.40;48.10
13440;DHT22;6792;57.698;11.946;2023-11-22T00:11:27;10.40;48.00
13440;DHT22;6792;57.698;11.946;2023-11-22T00:13:56;10.40;48.10
13440;DHT22;6792;57.698;11.946;2023-11-22T00:16:25;10.40;48.10
13440;DHT22;6792;57.698;11.946;2023-11-22T00:18:55;10.40;47.50
13440;DHT22;6792;57.698;11.946;2023-11-22T00:21:24;10.40;48.10
13440;DHT22;6792;57.698;11.946;2023-11-22T00:23:53;10.40;48.10
13440;DHT22;6792;57.698;11.946;2023-11-22T00:26:22;10.40;48.10
13440;DHT22;6792;57.698;11.946;2023-11-22T00:28:51;10.40;48.50
13440;DHT22;6792;57.698;11.946;2023-11-22T00:31:20;10.40;48.00
13440;DHT22;6792;57.698;11.946;2023-11-22T00:33:51;10.40;48.10
13440;DHT22;6792;57.698;11.946;2023-11-22T00:36:20;10.30;48.10
13440;DHT22;6792;57.698;11.946;2023-11-22T00:38:49;10.30;48.00
13440;DHT22;6792;57.698;11.946;2023-11-22T00:41:18;10.30;48.00
13440;DHT22;6792;57.698;11.946;2023-11-22T00:43:48;10.30;48.00
13440;DHT22;6792;57.698;11.946;2023-11-22T00:46:17;10.30;48.10
13440;DHT22;6792;57.698;11.946;2023-11-22T00:48:46;10.40;48.10
13440;DHT22;6792;57.698;11.946;2023-11-22T00:51:15;10.30;48.00
13440;DHT22;6792;57.698;11.946;2023-11-22T00:53:44;10.30;48.00
13440;DHT22;6792;57.698;11.946;2023-11-22T00:56:13;10.30;48.10
13440;DHT22;6792;57.698;11.946;2023-11-22T00:58:43;10.30;48.10
13440;DHT22;6792;57.698;11.946;2023-11-22T01:01:12;10.30;48.10
13440;DHT22;6792;57.698;11.946;2023-11-22T01:03:41;10.30;48.10
13440;DHT22;6792;57.698;11.946;2023-11-22T01:06:10;10.30;48.20
13440;DHT22;6792;57.698;11.946;2023-11-22T01:08:39;10.30;47.60
13440;DHT22;6792;57.698;11.946;2023-11-22T01:11:08;10.30;48.20
13440;DHT22;6792;57.698;11.946;2023-11-22T01:13:37;10.30;48.10
13440;DHT22;6792;57.698;11.946;2023-11-22T01:16:10;10.20;48.10
13440;DHT22;6792;57.698;11.946;2023-11-22T01:18:40;10.20;48.10
13440;DHT22;6792;57.698;11.946;2023-11-22T01:21:09;10.20;48.20
13440;DHT22;6792;57.698;11.946;2023-11-22T01:23:38;10.20;47.60
13440;DHT22;6792;57.698;11.946;2023-11-22T01:26:07;10.20;47.70
13440;DHT22;6792;57.698;11.946;2023-11-22T01:28:37;10.20;48.30
13440;DHT22;6792;57.698;11.946;2023-11-22T01:31:08;10.20;48.20
13440;DHT22;6792;57.698;11.946;2023-11-22T01:33:37;10.20;48.30
13440;DHT22;6792;57.698;11.946;2023-11-22T01:36:07;10.20;48.30
13440;DHT22;6792;57.698;11.946;2023-11-22T01:38:36;10.20;48.30
13440;DHT22;6792;57.698;11.946;2023-11-22T01:41:07;10.30;48.30
13440;DHT22;6792;57.698;11.946;2023-11-22T01:43:36;10.20;48.30
13440;DHT22;6792;57.698;11.946;2023-11-22T01:46:07;10.20;48.30
13440;DHT22;6792;57.698;11.946;2023-11-22T01:48:37;10.30;47.80
13440;DHT22;6792;57.698;11.946;2023-11-22T01:51:06;10.30;48.40
13440;DHT22;6792;57.698;11.946;2023-11-22T01:53:37;10.20;48.20
13440;DHT22;6792;57.698;11.946;2023-11-22T01:56:06;10.20;47.70
13440;DHT22;6792;57.698;11.946;2023-11-22T01:58:37;10.20;48.30
13440;DHT22;6792;57.698;11.946;2023-11-22T02:01:06;10.20;48.30
13440;DHT22;6792;57.698;11.946;2023-11-22T02:03:35;10.20;48.30
13440;DHT22;6792;57.698;11.946;2023-11-22T02:06:23;10.20;48.40
13440;DHT22;6792;57.698;11.946;2023-11-22T02:08:53;10.20;47.80
13440;DHT22;6792;57.698;11.946;2023-11-22T02:11:23;10.20;48.30
13440;DHT22;6792;57.698;11.946;2023-11-22T02:13:52;10.20;48.30
13440;DHT22;6792;57.698;11.946;2023-11-22T02:16:21;10.20;48.30
13440;DHT22;6792;57.698;11.946;2023-11-22T02:18:50;10.20;48.40
13440;DHT22;6792;57.698;11.946;2023-11-22T02:21:20;10.20;48.40
13440;DHT22;6792;57.698;11.946;2023-11-22T02:23:49;10.20;47.80
13440;DHT22;6792;57.698;11.946;2023-11-22T02:26:18;10.20;48.40
13440;DHT22;6792;57.698;11.946;2023-11-22T02:28:47;10.20;48.30
13440;DHT22;6792;57.698;11.946;2023-11-22T02:31:16;10.20;48.30
13440;DHT22;6792;57.698;11.946;2023-11-22T02:33:45;10.20;48.30
13440;DHT22;6792;57.698;11.946;2023-11-22T02:36:15;10.20;48.40
13440;DHT22;6792;57.698;11.946;2023-11-22T02:38:44;10.10;47.80
13440;DHT22;6792;57.698;11.946;2023-11-22T02:41:14;10.10;47.80
13440;DHT22;6792;57.698;11.946;2023-11-22T02:43:43;10.10;48.50
13440;DHT22;6792;57.698;11.946;2023-11-22T02:46:13;10.10;48.40
13440;DHT22;6792;57.698;11.946;2023-11-22T02:48:42;10.10;48.50
13440;DHT22;6792;57.698;11.946;2023-11-22T02:51:12;10.10;47.90
13440;DHT22;6792;57.698;11.946;2023-11-22T02:53:43;10.10;47.90
13440;DHT22;6792;57.698;11.946;2023-11-22T02:56:14;10.10;48.50
13440;DHT22;6792;57.698;11.946;2023-11-22T02:58:43;10.10;48.50
13440;DHT22;6792;57.698;11.946;2023-11-22T03:01:13;10.10;48.50
13440;DHT22;6792;57.698;11.946;2023-11-22T03:03:42;10.00;48.40
13440;DHT22;6792;57.698;11.946;2023-11-22T03:06:11;10.00;48.50
13440;DHT22;6792;57.698;11.946;2023-11-22T03:08:40;10.00;48.50
13440;DHT22;6792;57.698;11.946;2023-11-22T03:11:10;10.00;48.50
13440;DHT22;6792;57.698;11.946;2023-11-22T03:13:39;10.00;48.50
13440;DHT22;6792;57.698;11.946;2023-11-22T03:16:08;10.00;48.50
13440;DHT22;6792;57.698;11.946;2023-11-22T03:18:38;10.00;48.50
13440;DHT22;6792;57.698;11.946;2023-11-22T03:21:07;10.00;48.50
13440;DHT22;6792;57.698;11.946;2023-11-22T03:23:37;9.90;48.50
13440;DHT22;6792;57.698;11.946;2023-11-22T03:26:08;9.90;48.50
13440;DHT22;6792;57.698;11.946;2023-11-22T03:28:38;9.90;48.60
13440;DHT22;6792;57.698;11.946;2023-11-22T03:31:07;9.90;48.70
13440;DHT22;6792;57.698;11.946;2023-11-22T03:33:36;9.90;48.70
13440;DHT22;6792;57.698;11.946;2023-11-22T03:36:06;9.90;48.70
13440;DHT22;6792;57.698;11.946;2023-11-22T03:38:37;9.90;48.70
13440;DHT22;6792;57.698;11.946;2023-11-22T03:41:07;9.90;48.70
13440;DHT22;6792;57.698;11.946;2023-11-22T03:43:36;9.90;48.90
13440;DHT22;6792;57.698;11.946;2023-11-22T03:46:05;9.90;48.80
13440;DHT22;6792;57.698;11.946;2023-11-22T03:48:34;9.90;48.90
13440;DHT22;6792;57.698;11.946;2023-11-22T03:51:03;9.90;48.90
13440;DHT22;6792;57.698;11.946;2023-11-22T03:53:33;9.90;49.00
13440;DHT22;6792;57.698;11.946;2023-11-22T03:56:02;9.90;48.90
13440;DHT22;6792;57.698;11.946;2023-11-22T03:58:31;9.90;48.90
13440;DHT22;6792;57.698;11.946;2023-11-22T04:01:00;9.90;49.40
13440;DHT22;6792;57.698;11.946;2023-11-22T04:03:30;9.90;49.00
13440;DHT22;6792;57.698;11.946;2023-11-22T04:05:59;9.90;49.00
13440;DHT22;6792;57.698;11.946;2023-11-22T04:08:28;9.90;49.00
13440;DHT22;6792;57.698;11.946;2023-11-22T04:10:57;9.90;49.10
13440;DHT22;6792;57.698;11.946;2023-11-22T04:13:26;9.90;49.10
13440;DHT22;6792;57.698;11.946;2023-11-22T04:15:55;9.90;49.20
13440;DHT22;6792;57.698;11.946;2023-11-22T04:18:24;9.90;49.20
13440;DHT22;6792;57.698;11.946;2023-11-22T04:20:54;9.90;49.20
13440;DHT22;6792;57.698;11.946;2023-11-22T04:23:25;9.90;49.20
13440;DHT22;6792;57.698;11.946;2023-11-22T04:25:54;9.90;49.30
13440;DHT22;6792;57.698;11.946;2023-11-22T04:28:23;9.90;49.30
13440;DHT22;6792;57.698;11.946;2023-11-22T04:30:52;9.90;49.30
13440;DHT22;6792;57.698;11.946;2023-11-22T04:33:21;9.90;49.30
13440;DHT22;6792;57.698;11.946;2023-11-22T04:35:51;9.90;49.40
13440;DHT22;6792;57.698;11.946;2023-11-22T04:38:20;9.90;48.90
13440;DHT22;6792;57.698;11.946;2023-11-22T04:40:49;9.90;49.00
13440;DHT22;6792;57.698;11.946;2023-11-22T04:43:18;9.90;49.00
13440;DHT22;6792;57.698;11.946;2023-11-22T04:45:47;9.90;49.60
13440;DHT22;6792;57.698;11.946;2023-11-22T04:48:17;9.90;49.60
13440;DHT22;6792;57.698;11.946;2023-11-22T04:50:46;9.90;49.70
13440;DHT22;6792;57.698;11.946;2023-11-22T04:53:15;9.90;49.70
13440;DHT22;6792;57.698;11.946;2023-11-22T04:55:45;9.90;49.90
13440;DHT22;6792;57.698;11.946;2023-11-22T04:58:14;9.90;49.90
13440;DHT22;6792;57.698;11.946;2023-11-22T05:00:43;9.90;50.00
13440;DHT22;6792;57.698;11.946;2023-11-22T05:03:13;9.90;50.10
13440;DHT22;6792;57.698;11.946;2023-11-22T05:05:42;9.90;50.10
13440;DHT22;6792;57.698;11.946;2023-11-22T05:08:11;9.90;50.10
13440;DHT22;6792;57.698;11.946;2023-11-22T05:10:42;9.90;50.20
13440;DHT22;6792;57.698;11.946;2023-11-22T05:13:11;9.90;50.20
13440;DHT22;6792;57.698;11.946;2023-11-22T05:15:40;9.90;50.30
13440;DHT22;6792;57.698;11.946;2023-11-22T05:18:10;9.90;50.30
13440;DHT22;6792;57.698;11.946;2023-11-22T05:20:39;9.90;50.40
13440;DHT22;6792;57.698;11.946;2023-11-22T05:23:08;9.90;50.50
13440;DHT22;6792;57.698;11.946;2023-11-22T05:25:37;9.90;50.50
13440;DHT22;6792;57.698;11.946;2023-11-22T05:28:06;9.90;50.60
13440;DHT22;6792;57.698;11.946;2023-11-22T05:30:35;9.90;50.60
13440;DHT22;6792;57.698;11.946;2023-11-22T05:33:04;9.90;50.70
13440;DHT22;6792;57.698;11.946;2023-11-22T05:35:33;9.90;50.70
13440;DHT22;6792;57.698;11.946;2023-11-22T05:38:02;9.90;50.70
13440;DHT22;6792;57.698;11.946;2023-11-22T05:40:31;9.90;50.80
13440;DHT22;6792;57.698;11.946;2023-11-22T05:43:00;9.90;50.80
13440;DHT22;6792;57.698;11.946;2023-11-22T05:45:29;9.90;50.80
13440;DHT22;6792;57.698;11.946;2023-11-22T05:47:58;9.90;50.80
13440;DHT22;6792;57.698;11.946;2023-11-22T05:50:28;9.90;50.90
13440;DHT22;6792;57.698;11.946;2023-11-22T05:52:57;9.90;50.90
13440;DHT22;6792;57.698;11.946;2023-11-22T05:55:26;9.90;51.00
13440;DHT22;6792;57.698;11.946;2023-11-22T05:57:55;9.90;51.00
13440;DHT22;6792;57.698;11.946;2023-11-22T06:00:24;9.90;51.00
13440;DHT22;6792;57.698;11.946;2023-11-22T06:02:54;9.90;51.10
13440;DHT22;6792;57.698;11.946;2023-11-22T06:05:23;9.90;51.10
13440;DHT22;6792;57.698;11.946;2023-11-22T06:07:52;9.90;51.20
13440;DHT22;6792;57.698;11.946;2023-11-22T06:10:22;9.90;51.20
13440;DHT22;6792;57.698;11.946;2023-11-22T06:12:52;9.90;50.70
13440;DHT22;6792;57.698;11.946;2023-11-22T06:15:21;9.90;51.80
13440;DHT22;6792;57.698;11.946;2023-11-22T06:17:51;9.90;51.20
13440;DHT22;6792;57.698;11.946;2023-11-22T06:20:20;9.90;51.30
13440;DHT22;6792;57.698;11.946;2023-11-22T06:22:49;9.90;51.30
13440;DHT22;6792;57.698;11.946;2023-11-22T06:25:18;9.90;51.30
13440;DHT22;6792;57.698;11.946;2023-11-22T06:27:47;9.90;51.90
13440;DHT22;6792;57.698;11.946;2023-11-22T06:30:17;10.00;51.40
13440;DHT22;6792;57.698;11.946;2023-11-22T06:32:46;10.00;51.40
13440;DHT22;6792;57.698;11.946;2023-11-22T06:35:15;10.00;50.80
13440;DHT22;6792;57.698;11.946;2023-11-22T06:37:45;10.00;51.50
13440;DHT22;6792;57.698;11.946;2023-11-22T06:40:14;10.00;51.40
13440;DHT22;6792;57.698;11.946;2023-11-22T06:42:44;10.00;51.50
13440;DHT22;6792;57.698;11.946;2023-11-22T06:45:13;10.10;51.10
13440;DHT22;6792;57.698;11.946;2023-11-22T06:47:43;10.10;51.60
13440;DHT22;6792;57.698;11.946;2023-11-22T06:52:51;10.10;51.10
13440;DHT22;6792;57.698;11.946;2023-11-22T06:55:21;10.20;51.10
13440;DHT22;6792;57.698;11.946;2023-11-22T06:57:50;10.20;51.70
13440;DHT22;6792;57.698;11.946;2023-11-22T07:00:20;10.20;51.10
13440;DHT22;6792;57.698;11.946;2023-11-22T07:02:50;10.20;51.60
13440;DHT22;6792;57.698;11.946;2023-11-22T07:05:19;10.30;51.60
13440;DHT22;6792;57.698;11.946;2023-11-22T07:07:48;10.40;51.60
13440;DHT22;6792;57.698;11.946;2023-11-22T07:10:17;10.40;51.40
13440;DHT22;6792;57.698;11.946;2023-11-22T07:12:48;10.40;51.40
13440;DHT22;6792;57.698;11.946;2023-11-22T07:15:18;10.50;51.40
13440;DHT22;6792;57.698;11.946;2023-11-22T07:17:48;10.50;51.20
13440;DHT22;6792;57.698;11.946;2023-11-22T07:20:17;10.50;50.60
13440;DHT22;6792;57.698;11.946;2023-11-22T07:22:47;10.50;51.10
13440;DHT22;6792;57.698;11.946;2023-11-22T07:25:17;10.50;51.10
13440;DHT22;6792;57.698;11.946;2023-11-22T07:27:47;10.60;51.20
13440;DHT22;6792;57.698;11.946;2023-11-22T07:30:17;10.60;51.10
13440;DHT22;6792;57.698;11.946;2023-11-22T07:32:47;10.70;51.00
13440;DHT22;6792;57.698;11.946;2023-11-22T07:35:16;10.70;51.00
13440;DHT22;6792;57.698;11.946;2023-11-22T07:37:47;10.70;51.40
13440;DHT22;6792;57.698;11.946;2023-11-22T07:40:16;10.70;50.90
13440;DHT22;6792;57.698;11.946;2023-11-22T07:42:47;10.70;50.30
13440;DHT22;6792;57.698;11.946;2023-11-22T07:45:17;10.70;50.70
13440;DHT22;6792;57.698;11.946;2023-11-22T07:47:47;10.80;50.70
13440;DHT22;6792;57.698;11.946;2023-11-22T07:50:16;10.80;50.60
13440;DHT22;6792;57.698;11.946;2023-11-22T07:52:45;10.80;50.60
13440;DHT22;6792;57.698;11.946;2023-11-22T07:55:16;10.80;50.00
13440;DHT22;6792;57.698;11.946;2023-11-22T07:57:45;10.80;50.50
13440;DHT22;6792;57.698;11.946;2023-11-22T08:00:16;10.90;50.50
13440;DHT22;6792;57.698;11.946;2023-11-22T08:02:47;10.90;50.50
13440;DHT22;6792;57.698;11.946;2023-11-22T08:05:17;11.00;50.40
13440;DHT22;6792;57.698;11.946;2023-11-22T08:07:46;11.00;50.30
13440;DHT22;6792;57.698;11.946;2023-11-22T08:10:16;11.00;50.20
13440;DHT22;6792;57.698;11.946;2023-11-22T08:12:47;11.10;50.10
13440;DHT22;6792;57.698;11.946;2023-11-22T08:15:17;11.10;50.20
13440;DHT22;6792;57.698;11.946;2023-11-22T08:17:48;11.10;50.10
13440;DHT22;6792;57.698;11.946;2023-11-22T08:20:17;9.50;49.20
13440;DHT22;6792;57.698;11.946;2023-11-22T08:22:47;11.10;49.90
13440;DHT22;6792;57.698;11.946;2023-11-22T08:25:18;11.10;49.80
13440;DHT22;6792;57.698;11.946;2023-11-22T08:27:48;11.10;49.70
13440;DHT22;6792;57.698;11.946;2023-11-22T08:30:17;11.20;49.80
13440;DHT22;6792;57.698;11.946;2023-11-22T08:32:48;11.20;49.60
13440;DHT22;6792;57.698;11.946;2023-11-22T08:35:21;11.30;49.60
13440;DHT22;6792;57.698;11.946;2023-11-22T08:37:51;11.30;49.60
13440;DHT22;6792;57.698;11.946;2023-11-22T08:40:20;11.30;49.60
13440;DHT22;6792;57.698;11.946;2023-11-22T08:42:50;11.20;49.40
13440;DHT22;6792;57.698;11.946;2023-11-22T08:45:19;11.30;49.40
13440;DHT22;6792;57.698;11.946;2023-11-22T08:47:48;11.30;49.40
13440;DHT22;6792;57.698;11.946;2023-11-22T08:50:19;11.30;50.00
13440;DHT22;6792;57.698;11.946;2023-11-22T08:52:48;11.40;49.40
13440;DHT22;6792;57.698;11.946;2023-11-22T08:55:19;11.40;49.30
13440;DHT22;6792;57.698;11.946;2023-11-22T08:57:49;11.40;49.30
13440;DHT22;6792;57.698;11.946;2023-11-22T09:00:20;11.40;49.20
13440;DHT22;6792;57.698;11.946;2023-11-22T09:02:50;11.50;49.30
13440;DHT22;6792;57.698;11.946;2023-11-22T09:05:19;11.50;49.20
13440;DHT22;6792;57.698;11.946;2023-11-22T09:07:49;11.50;49.20
13440;DHT22;6792;57.698;11.946;2023-11-22T09:10:20;11.50;49.20
13440;DHT22;6792;57.698;11.946;2023-11-22T09:12:49;11.50;49.10
13440;DHT22;6792;57.698;11.946;2023-11-22T09:15:19;11.50;49.20
13440;DHT22;6792;57.698;11.946;2023-11-22T09:17:50;11.50;49.20
13440;DHT22;6792;57.698;11.946;2023-11-22T09:20:21;11.50;49.20
13440;DHT22;6792;57.698;11.946;2023-11-22T09:22:52;11.50;49.20
13440;DHT22;6792;57.698;11.946;2023-11-22T09:25:23;11.50;49.30
13440;DHT22;6792;57.698;11.946;2023-11-22T09:27:54;11.60;49.30
13440;DHT22;6792;57.698;11.946;2023-11-22T09:30:25;11.60;49.30
13440;DHT22;6792;57.698;11.946;2023-11-22T09:33:04;11.60;49.30
13440;DHT22;6792;57.698;11.946;2023-11-22T09:35:34;11.60;48.80
13440;DHT22;6792;57.698;11.946;2023-11-22T09:38:05;11.60;49.50
13440;DHT22;6792;57.698;11.946;2023-11-22T09:40:36;11.60;48.80
13440;DHT22;6792;57.698;11.946;2023-11-22T09:43:07;11.70;49.50
13440;DHT22;6792;57.698;11.946;2023-11-22T09:45:36;11.70;49.40
13440;DHT22;6792;57.698;11.946;2023-11-22T09:48:15;11.70;49.40
13440;DHT22;6792;57.698;11.946;2023-11-22T09:50:43;11.70;49.50
13440;DHT22;6792;57.698;11.946;2023-11-22T09:53:18;11.70;49.50
13440;DHT22;6792;57.698;11.946;2023-11-22T09:55:46;11.70;49.50
13440;DHT22;6792;57.698;11.946;2023-11-22T09:58:17;11.70;49.50
13440;DHT22;6792;57.698;11.946;2023-11-22T10:00:47;11.70;49.50
13440;DHT22;6792;57.698;11.946;2023-11-22T10:03:16;11.60;49.00
13440;DHT22;6792;57.698;11.946;2023-11-22T10:05:46;11.60;49.60
13440;DHT22;6792;57.698;11.946;2023-11-22T10:08:15;11.70;49.60
13440;DHT22;6792;57.698;11.946;2023-11-22T10:10:45;11.70;49.70
13440;DHT22;6792;57.698;11.946;2023-11-22T10:13:16;11.70;49.60
13440;DHT22;6792;57.698;11.946;2023-11-22T10:15:48;11.80;49.80
13440;DHT22;6792;57.698;11.946;2023-11-22T10:18:17;11.80;49.70
13440;DHT22;6792;57.698;11.946;2023-11-22T10:20:48;11.80;49.60
13440;DHT22;6792;57.698;11.946;2023-11-22T10:23:19;11.80;49.60
13440;DHT22;6792;57.698;11.946;2023-11-22T10:25:51;11.80;49.70
13440;DHT22;6792;57.698;11.946;2023-11-22T10:28:22;11.80;49.80
13440;DHT22;6792;57.698;11.946;2023-11-22T10:30:52;11.80;49.80
13440;DHT22;6792;57.698;11.946;2023-11-22T10:33:22;11.80;49.90
13440;DHT22;6792;57.698;11.946;2023-11-22T10:35:53;11.80;49.90
13440;DHT22;6792;57.698;11.946;2023-11-22T10:38:22;11.90;49.90
13440;DHT22;6792;57.698;11.946;2023-11-22T10:40:53;11.90;49.90
13440;DHT22;6792;57.698;11.946;2023-11-22T10:43:25;11.90;49.90
13440;DHT22;6792;57.698;11.946;2023-11-22T10:45:58;11.90;49.90
13440;DHT22;6792;57.698;11.946;2023-11-22T10:48:28;11.90;49.80
13440;DHT22;6792;57.698;11.946;2023-11-22T10:51:01;11.90;49.80
13440;DHT22;6792;57.698;11.946;2023-11-22T10:53:34;12.00;49.80
13440;DHT22;6792;57.698;11.946;2023-11-22T10:56:11;12.00;49.80
13440;DHT22;6792;57.698;11.946;2023-11-22T10:58:45;11.90;49.80
13440;DHT22;6792;57.698;11.946;2023-11-22T11:01:15;11.90;49.80
13440;DHT22;6792;57.698;11.946;2023-11-22T11:03:51;11.90;49.80
13440;DHT22;6792;57.698;11.946;2023-11-22T11:06:23;11.90;49.80
13440;DHT22;6792;57.698;11.946;2023-11-22T11:08:55;11.90;49.80
13440;DHT22;6792;57.698;11.946;2023-11-22T11:11:27;12.00;49.70
13440;DHT22;6792;57.698;11.946;2023-11-22T11:13:56;12.10;49.70
13440;DHT22;6792;57.698;11.946;2023-11-22T11:16:26;12.10;49.60
13440;DHT22;6792;57.698;11.946;2023-11-22T11:18:56;12.10;50.10
13440;DHT22;6792;57.698;11.946;2023-11-22T11:21:26;12.10;49.50
13440;DHT22;6792;57.698;11.946;2023-11-22T11:23:56;12.10;49.40
13440;DHT22;6792;57.698;11.946;2023-11-22T11:26:27;12.00;49.40
13440;DHT22;6792;57.698;11.946;2023-11-22T11:28:56;12.00;49.60
13440;DHT22;6792;57.698;11.946;2023-11-22T11:34:08;12.00;49.10
13440;DHT22;6792;57.698;11.946;2023-11-22T11:36:40;12.00;49.70
13440;DHT22;6792;57.698;11.946;2023-11-22T11:39:12;12.00;49.90
13440;DHT22;6792;57.698;11.946;2023-11-22T11:41:43;12.00;50.00
13440;DHT22;6792;57.698;11.946;2023-11-22T11:44:12;12.00;50.00
13440;DHT22;6792;57.698;11.946;2023-11-22T11:46:41;12.10;50.10
13440;DHT22;6792;57.698;11.946;2023-11-22T11:49:12;12.10;50.10
13440;DHT22;6792;57.698;11.946;2023-11-22T11:51:42;12.10;50.10
13440;DHT22;6792;57.698;11.946;2023-11-22T11:54:13;12.10;50.30
13440;DHT22;6792;57.698;11.946;2023-11-22T11:56:42;12.10;50.30
13440;DHT22;6792;57.698;11.946;2023-11-22T11:59:12;12.10;50.30
13440;DHT22;6792;57.698;11.946;2023-11-22T12:01:41;12.10;50.30
13440;DHT22;6792;57.698;11.946;2023-11-22T12:04:11;12.10;50.30
13440;DHT22;6792;57.698;11.946;2023-11-22T12:06:40;12.10;50.30
13440;DHT22;6792;57.698;11.946;2023-11-22T12:09:09;12.10;50.40
13440;DHT22;6792;57.698;11.946;2023-11-22T12:11:38;12.10;50.30
13440;DHT22;6792;57.698;11.946;2023-11-22T12:14:08;12.20;50.30
13440;DHT22;6792;57.698;11.946;2023-11-22T12:16:39;12.20;50.40
13440;DHT22;6792;57.698;11.946;2023-11-22T12:19:10;12.20;50.30
13440;DHT22;6792;57.698;11.946;2023-11-22T12:21:39;12.20;50.30
13440;DHT22;6792;57.698;11.946;2023-11-22T12:24:09;12.30;50.40
13440;DHT22;6792;57.698;11.946;2023-11-22T12:26:40;12.20;49.80
13440;DHT22;6792;57.698;11.946;2023-11-22T12:29:09;12.20;50.40
13440;DHT22;6792;57.698;11.946;2023-11-22T12:31:46;12.20;50.00
13440;DHT22;6792;57.698;11.946;2023-11-22T12:34:18;12.20;50.60
13440;DHT22;6792;57.698;11.946;2023-11-22T12:36:48;12.20;50.70
13440;DHT22;6792;57.698;11.946;2023-11-22T12:39:19;12.20;50.70
13440;DHT22;6792;57.698;11.946;2023-11-22T12:41:50;12.20;50.20
13440;DHT22;6792;57.698;11.946;2023-11-22T12:44:19;12.20;50.80
13440;DHT22;6792;57.698;11.946;2023-11-22T12:46:50;12.20;50.90
13440;DHT22;6792;57.698;11.946;2023-11-22T12:49:22;12.20;51.10
13440;DHT22;6792;57.698;11.946;2023-11-22T12:51:52;12.20;51.10
13440;DHT22;6792;57.698;11.946;2023-11-22T12:54:24;12.20;51.10
13440;DHT22;6792;57.698;11.946;2023-11-22T12:56:53;12.20;51.20
13440;DHT22;6792;57.698;11.946;2023-11-22T12:59:24;12.10;50.80
13440;DHT22;6792;57.698;11.946;2023-11-22T13:01:55;12.20;51.60
13440;DHT22;6792;57.698;11.946;2023-11-22T13:04:25;12.20;51.60
13440;DHT22;6792;57.698;11.946;2023-11-22T13:06:56;12.20;51.70
13440;DHT22;6792;57.698;11.946;2023-11-22T13:09:26;12.20;51.60
13440;DHT22;6792;57.698;11.946;2023-11-22T13:11:57;12.20;51.80
13440;DHT22;6792;57.698;11.946;2023-11-22T13:14:26;12.20;51.70
13440;DHT22;6792;57.698;11.946;2023-11-22T13:16:57;12.20;51.80
13440;DHT22;6792;57.698;11.946;2023-11-22T13:19:27;12.20;51.80
13440;DHT22;6792;57.698;11.946;2023-11-22T13:21:56;12.20;51.90
13440;DHT22;6792;57.698;11.946;2023-11-22T13:24:25;12.10;52.00
13440;DHT22;6792;57.698;11.946;2023-11-22T13:26:54;12.10;51.50
13440;DHT22;6792;57.698;11.946;2023-11-22T13:29:23;12.10;52.20
13440;DHT22;6792;57.698;11.946;2023-11-22T13:31:53;12.10;51.90
13440;DHT22;6792;57.698;11.946;2023-11-22T13:34:22;12.10;52.50
13440;DHT22;6792;57.698;11.946;2023-11-22T13:36:52;12.10;52.60
13440;DHT22;6792;57.698;11.946;2023-11-22T13:39:23;12.10;52.60
13440;DHT22;6792;57.698;11.946;2023-11-22T13:41:52;12.00;52.00
13440;DHT22;6792;57.698;11.946;2023-11-22T13:44:21;12.00;52.20
13440;DHT22;6792;57.698;11.946;2023-11-22T13:46:50;12.10;52.90
13440;DHT22;6792;57.698;11.946;2023-11-22T13:49:19;12.10;52.90
13440;DHT22;6792;57.698;11.946;2023-11-22T13:51:50;12.10;52.90
13440;DHT22;6792;57.698;11.946;2023-11-22T13:54:19;12.10;53.10
13440;DHT22;6792;57.698;11.946;2023-11-22T13:56:48;12.10;53.10
13440;DHT22;6792;57.698;11.946;2023-11-22T13:59:17;12.10;53.10
13440;DHT22;6792;57.698;11.946;2023-11-22T14:01:47;12.10;52.60
13440;DHT22;6792;57.698;11.946;2023-11-22T14:04:16;12.10;53.30
13440;DHT22;6792;57.698;11.946;2023-11-22T14:06:45;12.10;52.90
13440;DHT22;6792;57.698;11.946;2023-11-22T14:09:14;12.10;53.40
13440;DHT22;6792;57.698;11.946;2023-11-22T14:11:43;12.10;53.50
13440;DHT22;6792;57.698;11.946;2023-11-22T14:14:31;12.10;53.60
13440;DHT22;6792;57.698;11.946;2023-11-22T14:17:00;12.10;53.10
13440;DHT22;6792;57.698;11.946;2023-11-22T14:19:29;12.10;53.70
13440;DHT22;6792;57.698;11.946;2023-11-22T14:21:58;12.10;53.80
13440;DHT22;6792;57.698;11.946;2023-11-22T14:24:27;12.00;53.90
13440;DHT22;6792;57.698;11.946;2023-11-22T14:26:58;12.00;54.00
13440;DHT22;6792;57.698;11.946;2023-11-22T14:29:28;12.00;54.00
13440;DHT22;6792;57.698;11.946;2023-11-22T14:31:57;12.00;54.20
13440;DHT22;6792;57.698;11.946;2023-11-22T14:34:26;12.00;54.20
13440;DHT22;6792;57.698;11.946;2023-11-22T14:36:56;12.00;54.30
13440;DHT22;6792;57.698;11.946;2023-11-22T14:39:25;12.00;54.40
13440;DHT22;6792;57.698;11.946;2023-11-22T14:41:55;12.10;54.40
13440;DHT22;6792;57.698;11.946;2023-11-22T14:44:24;12.10;54.40
13440;DHT22;6792;57.698;11.946;2023-11-22T14:46:53;12.10;54.40
13440;DHT22;6792;57.698;11.946;2023-11-22T14:49:22;12.10;54.50
13440;DHT22;6792;57.698;11.946;2023-11-22T14:51:51;12.10;54.50
13440;DHT22;6792;57.698;11.946;2023-11-22T14:54:20;12.10;54.50
13440;DHT22;6792;57.698;11.946;2023-11-22T14:56:52;12.10;54.80
13440;DHT22;6792;57.698;11.946;2023-11-22T14:59:22;12.10;54.60
13440;DHT22;6792;57.698;11.946;2023-11-22T15:01:51;12.10;54.70
13440;DHT22;6792;57.698;11.946;2023-11-22T15:04:20;12.10;54.70
13440;DHT22;6792;57.698;11.946;2023-11-22T15:06:50;12.10;54.70
13440;DHT22;6792;57.698;11.946;2023-11-22T15:09:19;12.10;54.80
13440;DHT22;6792;57.698;11.946;2023-11-22T15:11:49;12.10;54.80
13440;DHT22;6792;57.698;11.946;2023-11-22T15:14:19;12.10;54.80
13440;DHT22;6792;57.698;11.946;2023-11-22T15:16:50;12.10;54.90
13440;DHT22;6792;57.698;11.946;2023-11-22T15:19:19;12.00;54.90
13440;DHT22;6792;57.698;11.946;2023-11-22T15:21:49;12.10;55.00
13440;DHT22;6792;57.698;11.946;2023-11-22T15:24:19;12.10;55.00
13440;DHT22;6792;57.698;11.946;2023-11-22T15:26:49;12.10;54.90
13440;DHT22;6792;57.698;11.946;2023-11-22T15:29:18;12.10;54.90
13440;DHT22;6792;57.698;11.946;2023-11-22T15:31:47;12.10;54.90
13440;DHT22;6792;57.698;11.946;2023-11-22T15:34:16;12.10;55.00
13440;DHT22;6792;57.698;11.946;2023-11-22T15:39:25;12.10;54.40
13440;DHT22;6792;57.698;11.946;2023-11-22T15:41:54;12.20;55.00
13440;DHT22;6792;57.698;11.946;2023-11-22T15:44:23;12.20;54.90
13440;DHT22;6792;57.698;11.946;2023-11-22T15:46:52;12.20;54.90
13440;DHT22;6792;57.698;11.946;2023-11-22T15:49:21;12.20;54.90
13440;DHT22;6792;57.698;11.946;2023-11-22T15:51:50;12.20;55.00
13440;DHT22;6792;57.698;11.946;2023-11-22T15:54:20;12.20;55.00
13440;DHT22;6792;57.698;11.946;2023-11-22T15:56:50;12.20;55.00
13440;DHT22;6792;57.698;11.946;2023-11-22T15:59:19;12.20;55.00